Terminal Aerodrome Forecast
Issued by NWS

Home | Current Version | Previous Version | Text Only | Print | Product List | Glossary On
Versions: 1 2 3 4 5 6 7 8 9 10 11 12 13 14 15 16 17 18 19 20 21 22
504
FTUS41 KBTV 120538 CCA
TAFSLK
TAF COR
KSLK 120538Z 1206/1306 11005KT 1 1/2SM -SN BR OVC020
     FM121900 15008KT P6SM VCSH OVC025
     FM122200 00000KT P6SM VCSH OVC015
     FM130000 28008KT 2SM -SHSN BR OVC020=

USA.gov is the U.S. government's official web portal to all federal, state and local government web resources and services.